createdAt,value
2023-05-10T00:02:09.647Z,97466.97
2023-05-10T00:04:36.610Z,97478.63
2023-05-10T00:07:03.593Z,97471.22
2023-05-10T00:09:30.555Z,97475.19
2023-05-10T00:11:59.472Z,97483.91
2023-05-10T00:14:26.478Z,97480.44
2023-05-10T00:16:53.559Z,97465.75
2023-05-10T00:19:20.759Z,97473.69
2023-05-10T00:21:47.735Z,97464.78
2023-05-10T00:24:14.717Z,97473.81
2023-05-10T00:26:43.212Z,97475.03
2023-05-10T00:29:10.402Z,97478.94
2023-05-10T00:31:37.370Z,97479.28
2023-05-10T00:34:04.543Z,97471.44
2023-05-10T00:36:32.282Z,97461.88
2023-05-10T00:38:59.553Z,97441.25
2023-05-10T00:41:26.582Z,97454.97
2023-05-10T00:43:54.823Z,97461.97
2023-05-10T00:46:22.552Z,97455.66
2023-05-10T00:48:50.133Z,97407.25
2023-05-10T00:51:17.311Z,97456.44
2023-05-10T00:53:46.982Z,97463.88
2023-05-10T00:56:14.364Z,97443.53
2023-05-10T00:58:41.514Z,97459.59
2023-05-10T01:01:10.230Z,97454.31
2023-05-10T01:03:38.022Z,97429.63
2023-05-10T01:06:05.193Z,97453.56
2023-05-10T01:08:32.432Z,97458.06
2023-05-10T01:10:59.854Z,97454.53
2023-05-10T01:13:36.171Z,97456.88
2023-05-10T01:16:04.439Z,97448.63
2023-05-10T01:18:39.037Z,97450.97
2023-05-10T01:21:21.007Z,97457.59
2023-05-10T01:24:25.506Z,97449.03
2023-05-10T01:27:19.921Z,97451.34
2023-05-10T01:30:22.297Z,97452.47
2023-05-10T01:33:17.644Z,97447.69
2023-05-10T01:35:52.062Z,97441.66
2023-05-10T01:38:42.217Z,97447.72
2023-05-10T01:41:18.639Z,97440.63
2023-05-10T01:43:51.602Z,97439.16
2023-05-10T01:46:28.247Z,97434.38
2023-05-10T01:48:59.307Z,97435.53
2023-05-10T01:51:32.545Z,97443.22
2023-05-10T01:54:03.209Z,97448.66
2023-05-10T01:56:33.268Z,97450.59
2023-05-10T01:59:04.175Z,97456.69
2023-05-10T02:01:32.161Z,97458.97
2023-05-10T02:04:00.238Z,97459.09
2023-05-10T02:06:28.366Z,97443.84
2023-05-10T02:08:56.830Z,97444.69
2023-05-10T02:11:26.074Z,97438.13
2023-05-10T02:13:56.247Z,97445.09
2023-05-10T02:16:31.999Z,97439.31
2023-05-10T02:19:03.002Z,97441.91
2023-05-10T02:21:31.900Z,97441.94
2023-05-10T02:24:00.215Z,97430.69
2023-05-10T02:26:29.976Z,97439.16
2023-05-10T02:28:59.434Z,97429.81
2023-05-10T02:31:27.508Z,97442.59
2023-05-10T02:33:55.659Z,97435.63
2023-05-10T02:36:23.976Z,97432.31
2023-05-10T02:38:54.260Z,97432.56
2023-05-10T02:41:24.147Z,97435.53
2023-05-10T02:43:58.609Z,97427.00
2023-05-10T02:46:25.857Z,97432.06
2023-05-10T02:48:52.808Z,97431.88
2023-05-10T02:51:24.198Z,97431.28
2023-05-10T02:53:54.429Z,97427.38
2023-05-10T02:56:26.850Z,97428.25
2023-05-10T02:58:54.023Z,97430.50
2023-05-10T03:01:21.090Z,97434.13
2023-05-10T03:03:48.026Z,97437.34
2023-05-10T03:06:15.443Z,97443.13
2023-05-10T03:08:42.494Z,97433.13
2023-05-10T03:11:16.516Z,97438.44
2023-05-10T03:13:54.656Z,97428.88
2023-05-10T03:16:30.408Z,97449.88
2023-05-10T03:19:00.071Z,97444.16
2023-05-10T03:21:30.940Z,97437.09
2023-05-10T03:24:08.102Z,97444.22
2023-05-10T03:26:38.253Z,97444.84
2023-05-10T03:29:15.354Z,97450.13
2023-05-10T03:31:42.609Z,97452.91
2023-05-10T03:34:09.661Z,97424.47
2023-05-10T03:36:37.182Z,97462.66
2023-05-10T03:39:04.164Z,97467.59
2023-05-10T03:41:31.509Z,97421.53
2023-05-10T03:43:58.456Z,97465.84
2023-05-10T03:46:25.681Z,97463.63
2023-05-10T03:48:52.956Z,97464.66
2023-05-10T03:51:20.563Z,97466.03
2023-05-10T03:53:48.756Z,97460.63
2023-05-10T03:56:16.234Z,97462.78
2023-05-10T03:58:43.285Z,97467.25
2023-05-10T04:01:10.791Z,97450.59
2023-05-10T04:03:37.967Z,97453.63
2023-05-10T04:06:06.392Z,97474.09
2023-05-10T04:08:33.760Z,97473.25
2023-05-10T04:11:13.986Z,97479.19
2023-05-10T04:13:41.096Z,97468.09
2023-05-10T04:16:09.312Z,97464.22
2023-05-10T04:18:37.981Z,97475.44
2023-05-10T04:21:05.462Z,97474.38
2023-05-10T04:23:32.393Z,97475.78
2023-05-10T04:26:02.946Z,97457.72
2023-05-10T04:28:29.933Z,97477.03
2023-05-10T04:31:06.997Z,97468.72
2023-05-10T04:33:34.938Z,97461.66
2023-05-10T04:36:02.258Z,97466.22
2023-05-10T04:38:29.752Z,97467.59
2023-05-10T04:41:06.263Z,97468.81
2023-05-10T04:43:33.344Z,97455.59
2023-05-10T04:46:00.597Z,97458.63
2023-05-10T04:48:27.866Z,97468.28
2023-05-10T04:50:55.333Z,97454.88
2023-05-10T04:53:22.378Z,97469.97
2023-05-10T04:55:49.941Z,97453.06
2023-05-10T04:58:17.062Z,97455.03
2023-05-10T05:00:44.136Z,97469.56
2023-05-10T05:03:11.386Z,97478.16
2023-05-10T05:05:38.655Z,97469.97
2023-05-10T05:08:05.796Z,97455.50
2023-05-10T05:10:32.992Z,97462.63
2023-05-10T05:12:59.981Z,97464.31
2023-05-10T05:15:28.508Z,97483.97
2023-05-10T05:17:55.592Z,97486.25
2023-05-10T05:20:22.704Z,97484.44
2023-05-10T05:22:50.126Z,97487.94
2023-05-10T05:25:19.258Z,97478.00
2023-05-10T05:27:47.462Z,97479.78
2023-05-10T05:30:14.527Z,97480.00
2023-05-10T05:32:41.565Z,97488.63
2023-05-10T05:35:08.808Z,97487.09
2023-05-10T05:37:37.505Z,97477.91
2023-05-10T05:40:05.950Z,97489.19
2023-05-10T05:42:34.335Z,97491.78
2023-05-10T05:45:02.516Z,97492.97
2023-05-10T05:47:34.521Z,97485.19
2023-05-10T05:50:03.149Z,97488.00
2023-05-10T05:52:34.218Z,97492.19
2023-05-10T05:55:01.259Z,97497.63
2023-05-10T05:57:28.992Z,97501.00
2023-05-10T05:59:56.263Z,97488.69
2023-05-10T06:02:23.878Z,97513.22
2023-05-10T06:04:51.495Z,97495.53
2023-05-10T06:07:20.935Z,97502.38
2023-05-10T06:09:48.044Z,97504.94
2023-05-10T06:12:15.201Z,97509.63
2023-05-10T06:14:42.260Z,97510.91
2023-05-10T06:17:09.370Z,97503.66
2023-05-10T06:19:36.830Z,97514.50
2023-05-10T06:22:04.909Z,97505.41
2023-05-10T06:24:31.864Z,97514.31
2023-05-10T06:27:01.170Z,97528.50
2023-05-10T06:29:29.448Z,97514.19
2023-05-10T06:31:56.653Z,97518.19
2023-05-10T06:34:23.904Z,97522.56
2023-05-10T06:36:50.858Z,97511.53
2023-05-10T06:39:18.343Z,97499.16
2023-05-10T06:41:45.394Z,97514.78
2023-05-10T06:44:12.510Z,97515.72
2023-05-10T06:46:39.737Z,97521.47
2023-05-10T06:49:06.813Z,97517.78
2023-05-10T06:51:34.019Z,97524.22
2023-05-10T06:54:01.277Z,97521.84
2023-05-10T06:56:33.189Z,97508.03
2023-05-10T06:59:00.708Z,97519.97
2023-05-10T07:01:27.868Z,97521.75
2023-05-10T07:03:54.940Z,97522.84
2023-05-10T07:06:33.028Z,97520.94
2023-05-10T07:09:04.129Z,97499.03
2023-05-10T07:11:35.038Z,97513.81
2023-05-10T07:14:04.022Z,97515.56
2023-05-10T07:16:36.399Z,97498.88
2023-05-10T07:19:03.952Z,97521.94
2023-05-10T07:27:32.186Z,97505.50
2023-05-10T07:29:59.829Z,97530.19
2023-05-10T07:32:28.710Z,97524.09
2023-05-10T07:34:58.168Z,97527.47
2023-05-10T07:37:25.176Z,97530.97
2023-05-10T07:39:56.130Z,97524.09
2023-05-10T07:42:23.639Z,97519.00
2023-05-10T07:44:50.700Z,97529.81
2023-05-10T07:47:17.640Z,97538.44
2023-05-10T07:49:46.659Z,97531.03
2023-05-10T07:52:14.851Z,97530.88
2023-05-10T07:54:44.541Z,97533.22
2023-05-10T07:57:11.921Z,97526.63
2023-05-10T07:59:38.930Z,97525.94
2023-05-10T08:02:07.215Z,97532.03
2023-05-10T08:04:34.643Z,97539.59
2023-05-10T08:07:02.812Z,97533.41
2023-05-10T08:09:30.013Z,97533.88
2023-05-10T08:12:01.249Z,97530.66
2023-05-10T08:14:34.026Z,97540.22
2023-05-10T08:17:01.165Z,97541.50
2023-05-10T08:19:28.420Z,97498.69
2023-05-10T08:21:57.107Z,97531.72
2023-05-10T08:24:24.204Z,97523.78
2023-05-10T08:26:51.153Z,97536.09
2023-05-10T08:29:18.159Z,97516.03
2023-05-10T08:31:45.563Z,97540.16
2023-05-10T08:34:13.658Z,97534.97
2023-05-10T08:36:41.278Z,97525.84
2023-05-10T08:39:16.133Z,97541.69
2023-05-10T08:41:53.247Z,97529.06
2023-05-10T08:44:22.295Z,97534.72
2023-05-10T08:46:55.882Z,97533.44
2023-05-10T08:49:26.547Z,97527.63
2023-05-10T08:51:56.152Z,97528.56
2023-05-10T08:54:25.599Z,97511.59
2023-05-10T08:56:56.358Z,97518.22
2023-05-10T08:59:23.973Z,97509.47
2023-05-10T09:01:52.535Z,97530.56
2023-05-10T09:04:20.677Z,97529.06
2023-05-10T09:06:47.808Z,97527.13
2023-05-10T09:09:15.854Z,97521.66
2023-05-10T09:11:43.250Z,97531.25
2023-05-10T09:14:10.949Z,97514.09
2023-05-10T09:16:42.430Z,97504.59
2023-05-10T09:19:12.460Z,97515.69
2023-05-10T09:21:41.655Z,97522.16
2023-05-10T09:24:11.442Z,97506.66
2023-05-10T09:26:49.392Z,97517.63
2023-05-10T09:29:17.775Z,97516.88
2023-05-10T09:31:47.713Z,97527.16
2023-05-10T09:34:30.381Z,97518.47
2023-05-10T09:37:01.732Z,97505.00
2023-05-10T09:39:37.303Z,97516.44
2023-05-10T09:42:12.048Z,97504.91
2023-05-10T09:44:41.420Z,97515.66
2023-05-10T09:47:08.761Z,97513.06
2023-05-10T09:49:36.262Z,97520.00
2023-05-10T09:52:05.151Z,97499.19
2023-05-10T09:54:33.221Z,97499.31
2023-05-10T09:57:00.855Z,97492.50
2023-05-10T09:59:29.724Z,97495.00
2023-05-10T10:02:01.573Z,97492.38
2023-05-10T10:04:29.528Z,97491.88
2023-05-10T10:07:05.941Z,97496.47
2023-05-10T10:09:34.290Z,97504.81
2023-05-10T10:12:03.482Z,97497.41
2023-05-10T10:14:31.981Z,97499.28
2023-05-10T10:19:34.741Z,97471.88
2023-05-10T10:22:02.856Z,97480.25
2023-05-10T10:24:30.647Z,97483.13
2023-05-10T10:27:05.693Z,97490.81
2023-05-10T10:29:43.338Z,97483.63
2023-05-10T10:32:27.185Z,97482.28
2023-05-10T10:34:57.979Z,97479.66
2023-05-10T10:37:44.501Z,97463.72
2023-05-10T10:40:34.993Z,97472.53
2023-05-10T10:43:25.767Z,97489.09
2023-05-10T10:46:15.830Z,97490.94
2023-05-10T10:48:49.261Z,97490.72
2023-05-10T10:51:16.498Z,97485.78
2023-05-10T10:53:44.589Z,97484.06
2023-05-10T10:56:16.442Z,97501.47
2023-05-10T10:58:54.752Z,97492.66
2023-05-10T11:01:23.523Z,97496.09
2023-05-10T11:04:07.437Z,97498.78
2023-05-10T11:06:37.021Z,97496.38
2023-05-10T11:09:09.536Z,97488.25
2023-05-10T11:11:37.614Z,97493.56
2023-05-10T11:14:06.877Z,97492.38
2023-05-10T11:16:43.982Z,97475.38
2023-05-10T11:19:14.317Z,97484.31
2023-05-10T11:21:48.932Z,97483.84
2023-05-10T11:24:20.929Z,97481.00
2023-05-10T11:26:52.056Z,97480.50
2023-05-10T11:29:21.162Z,97482.38
2023-05-10T11:31:49.558Z,97482.88
2023-05-10T11:34:25.042Z,97482.13
2023-05-10T11:36:55.751Z,97473.59
2023-05-10T11:39:31.599Z,97478.06
2023-05-10T11:42:02.291Z,97474.34
2023-05-10T11:44:33.874Z,97476.59
2023-05-10T11:47:05.427Z,97465.75
2023-05-10T11:49:32.459Z,97481.38
2023-05-10T11:52:10.268Z,97462.41
2023-05-10T11:54:37.374Z,97471.19
2023-05-10T11:57:04.940Z,97471.38
2023-05-10T11:59:32.748Z,97455.72
2023-05-10T12:02:00.220Z,97456.72
2023-05-10T12:04:30.781Z,97408.88
2023-05-10T12:06:58.404Z,97443.00
2023-05-10T12:09:42.706Z,97445.63
2023-05-10T12:12:10.934Z,97446.06
2023-05-10T12:14:38.197Z,97447.00
2023-05-10T12:17:05.329Z,97423.84
2023-05-10T12:19:50.621Z,97444.69
2023-05-10T12:22:22.010Z,97430.13
2023-05-10T12:24:49.080Z,97393.91
2023-05-10T12:27:17.175Z,97401.16
2023-05-10T12:29:47.982Z,97430.75
2023-05-10T12:32:15.004Z,97426.41
2023-05-10T12:34:42.082Z,97424.72
2023-05-10T12:37:09.568Z,97424.63
2023-05-10T12:39:43.697Z,97417.53
2023-05-10T12:42:11.940Z,97406.19
2023-05-10T12:44:41.165Z,97405.88
2023-05-10T12:47:08.477Z,97404.13
2023-05-10T12:49:36.293Z,97407.69
2023-05-10T12:52:03.461Z,97405.78
2023-05-10T12:54:30.560Z,97402.00
2023-05-10T12:56:57.487Z,97415.53
2023-05-10T12:59:24.465Z,97407.91
2023-05-10T13:01:51.408Z,97398.59
2023-05-10T13:04:18.368Z,97399.84
2023-05-10T13:06:45.508Z,97393.31
2023-05-10T13:12:33.597Z,97382.81
2023-05-10T13:15:00.698Z,97386.91
2023-05-10T13:17:27.917Z,97392.94
2023-05-10T13:19:57.725Z,97372.16
2023-05-10T13:22:36.348Z,97368.34
2023-05-10T13:25:08.060Z,97385.25
2023-05-10T13:27:36.651Z,97391.44
2023-05-10T13:30:04.626Z,97373.66
2023-05-10T13:32:34.380Z,97372.91
2023-05-10T13:35:01.832Z,97363.53
2023-05-10T13:37:29.446Z,97367.72
2023-05-10T13:39:57.553Z,97360.97
2023-05-10T13:42:24.921Z,97372.47
2023-05-10T13:44:52.479Z,97364.13
2023-05-10T13:47:19.692Z,97360.97
2023-05-10T13:49:46.832Z,97342.38
2023-05-10T13:52:14.732Z,97354.41
2023-05-10T13:54:45.867Z,97358.19
2023-05-10T13:57:20.136Z,97337.13
2023-05-10T13:59:48.339Z,97348.03
2023-05-10T14:02:19.007Z,97354.41
2023-05-10T14:04:46.113Z,97354.41
2023-05-10T14:07:21.600Z,97351.41
2023-05-10T14:09:51.689Z,97353.13
2023-05-10T14:12:20.880Z,97349.34
2023-05-10T14:14:48.028Z,97335.31
2023-05-10T14:17:15.384Z,97349.78
2023-05-10T14:19:43.481Z,97353.03
2023-05-10T14:22:15.468Z,97344.25
2023-05-10T14:24:45.790Z,97339.72
2023-05-10T14:27:14.771Z,97346.75
2023-05-10T14:29:41.786Z,97351.84
2023-05-10T14:32:11.406Z,97347.16
2023-05-10T14:34:38.520Z,97336.16
2023-05-10T14:37:11.970Z,97350.38
2023-05-10T14:39:39.078Z,97338.78
2023-05-10T14:42:07.098Z,97335.56
2023-05-10T14:44:34.657Z,97356.28
2023-05-10T14:47:04.373Z,97335.19
2023-05-10T14:49:31.961Z,97341.69
2023-05-10T14:52:03.230Z,97353.47
2023-05-10T14:54:49.219Z,97348.88
2023-05-10T14:57:16.361Z,97354.84
2023-05-10T14:59:44.315Z,97342.75
2023-05-10T15:02:12.222Z,97332.75
2023-05-10T15:04:39.770Z,97340.94
2023-05-10T15:07:07.260Z,97352.09
2023-05-10T15:09:34.399Z,97348.81
2023-05-10T15:12:01.694Z,97350.50
2023-05-10T15:14:29.137Z,97350.28
2023-05-10T15:16:56.394Z,97337.19
2023-05-10T15:19:23.615Z,97349.09
2023-05-10T15:21:51.972Z,97359.00
2023-05-10T15:24:19.546Z,97347.78
2023-05-10T15:26:47.150Z,97344.13
2023-05-10T15:29:30.895Z,97344.22
2023-05-10T15:35:23.630Z,97332.38
2023-05-10T15:37:52.381Z,97346.66
2023-05-10T15:40:19.473Z,97340.94
2023-05-10T15:42:47.951Z,97342.09
2023-05-10T15:45:16.647Z,97345.47
2023-05-10T15:47:45.651Z,97334.84
2023-05-10T15:50:13.278Z,97340.34
2023-05-10T15:52:42.179Z,97345.75
2023-05-10T15:55:13.349Z,97337.22
2023-05-10T15:57:42.848Z,97332.69
2023-05-10T16:00:13.851Z,97343.47
2023-05-10T16:02:42.978Z,97334.91
2023-05-10T16:05:10.415Z,97349.25
2023-05-10T16:07:37.492Z,97353.56
2023-05-10T16:10:06.607Z,97355.22
2023-05-10T16:12:34.521Z,97352.53
2023-05-10T16:15:02.220Z,97365.22
2023-05-10T16:17:32.231Z,97364.09
2023-05-10T16:20:01.290Z,97367.69
2023-05-10T16:22:30.923Z,97364.16
2023-05-10T16:24:58.100Z,97361.38
2023-05-10T16:27:25.829Z,97362.59
2023-05-10T16:29:53.078Z,97360.50
2023-05-10T16:32:22.567Z,97361.69
2023-05-10T16:34:50.359Z,97350.28
2023-05-10T16:37:17.673Z,97350.09
2023-05-10T16:39:44.663Z,97347.84
2023-05-10T16:42:12.773Z,97354.19
2023-05-10T16:44:39.972Z,97319.97
2023-05-10T16:47:07.999Z,97344.06
2023-05-10T16:52:03.797Z,97346.38
2023-05-10T16:54:31.056Z,97348.91
2023-05-10T16:56:58.060Z,97349.09
2023-05-10T16:59:25.089Z,97357.28
2023-05-10T17:01:53.367Z,97355.31
2023-05-10T17:04:20.560Z,97358.25
2023-05-10T17:06:50.226Z,97359.47
2023-05-10T17:09:17.257Z,97359.00
2023-05-10T17:11:44.197Z,97344.63
2023-05-10T17:14:12.352Z,97366.97
2023-05-10T17:16:39.553Z,97365.31
2023-05-10T17:19:07.581Z,97374.28
2023-05-10T17:21:38.201Z,97376.38
2023-05-10T17:24:05.537Z,97381.00
2023-05-10T17:26:34.684Z,97385.91
2023-05-10T17:29:01.719Z,97386.97
2023-05-10T17:31:29.040Z,97395.47
2023-05-10T17:33:56.668Z,97390.00
2023-05-10T17:36:35.803Z,97401.47
2023-05-10T17:39:03.979Z,97388.19
2023-05-10T17:41:30.951Z,97398.50
2023-05-10T17:43:57.946Z,97400.91
2023-05-10T17:46:26.017Z,97397.94
2023-05-10T17:48:53.668Z,97398.59
2023-05-10T17:51:23.412Z,97398.59
2023-05-10T17:53:50.510Z,97411.50
2023-05-10T17:56:17.462Z,97413.78
2023-05-10T17:58:44.833Z,97398.00
2023-05-10T18:01:13.110Z,97425.44
2023-05-10T18:03:40.310Z,97420.03
2023-05-10T18:06:07.866Z,97424.34
2023-05-10T18:11:28.410Z,97368.06
2023-05-10T18:13:58.622Z,97416.00
2023-05-10T18:16:27.059Z,97414.34
2023-05-10T18:18:57.028Z,97425.81
2023-05-10T18:21:26.247Z,97436.22
2023-05-10T18:23:56.377Z,97440.53
2023-05-10T18:26:28.731Z,97451.47
2023-05-10T18:28:57.650Z,97452.66
2023-05-10T18:31:29.724Z,97468.34
2023-05-10T18:34:01.319Z,97471.72
2023-05-10T18:36:30.278Z,97460.81
2023-05-10T18:38:59.108Z,97470.28
2023-05-10T18:41:28.920Z,97473.06
2023-05-10T18:44:02.271Z,97477.63
2023-05-10T18:46:32.212Z,97467.53
2023-05-10T18:49:00.941Z,97480.84
2023-05-10T18:51:33.378Z,97480.84
2023-05-10T18:54:08.159Z,97474.41
2023-05-10T18:56:39.691Z,97473.94
2023-05-10T18:59:07.517Z,97480.50
2023-05-10T19:01:34.536Z,97490.13
2023-05-10T19:04:01.617Z,97492.84
2023-05-10T19:06:28.858Z,97483.16
2023-05-10T19:08:59.549Z,97493.22
2023-05-10T19:11:28.928Z,97480.63
2023-05-10T19:13:59.852Z,97482.38
2023-05-10T19:16:30.757Z,97491.34
2023-05-10T19:19:01.360Z,97500.44
2023-05-10T19:21:29.944Z,97496.34
2023-05-10T19:23:57.841Z,97502.00
2023-05-10T19:26:35.832Z,97500.81
2023-05-10T19:29:06.522Z,97494.13
2023-05-10T19:34:18.236Z,97492.28
2023-05-10T19:36:45.425Z,97499.13
2023-05-10T19:39:15.795Z,97496.13
2023-05-10T19:41:45.214Z,97493.94
2023-05-10T19:44:19.360Z,97502.72
2023-05-10T19:46:47.216Z,97500.06
2023-05-10T19:49:14.575Z,97474.25
2023-05-10T19:51:43.529Z,97478.59
2023-05-10T19:54:19.176Z,97478.22
2023-05-10T19:56:46.296Z,97497.25
2023-05-10T19:59:20.756Z,97498.22
2023-05-10T20:04:38.271Z,97484.44
2023-05-10T20:07:05.374Z,97493.56
2023-05-10T20:09:34.001Z,97482.72
2023-05-10T20:12:01.040Z,97481.59
2023-05-10T20:14:29.682Z,97496.47
2023-05-10T20:16:58.567Z,97479.97
2023-05-10T20:19:31.540Z,97453.31
2023-05-10T20:21:58.904Z,97483.00
2023-05-10T20:24:28.173Z,97461.94
2023-05-10T20:26:58.251Z,97476.78
2023-05-10T20:29:28.214Z,97480.22
2023-05-10T20:31:55.970Z,97481.59
2023-05-10T20:34:27.974Z,97484.63
2023-05-10T20:36:56.937Z,97483.00
2023-05-10T20:39:26.193Z,97477.63
2023-05-10T20:42:00.278Z,97479.63
2023-05-10T20:44:27.816Z,97481.06
2023-05-10T20:46:57.671Z,97474.97
2023-05-10T20:49:24.658Z,97479.81
2023-05-10T20:51:54.016Z,97486.03
2023-05-10T20:54:24.611Z,97447.22
2023-05-10T20:56:58.467Z,97495.34
2023-05-10T20:59:25.972Z,97501.31
2023-05-10T21:01:54.256Z,97499.97
2023-05-10T21:04:23.084Z,97482.84
2023-05-10T21:06:52.786Z,97499.03
2023-05-10T21:09:20.017Z,97499.78
2023-05-10T21:11:47.410Z,97497.22
2023-05-10T21:14:16.053Z,97502.41
2023-05-10T21:16:42.990Z,97493.72
2023-05-10T21:19:12.012Z,97490.78
2023-05-10T21:21:39.507Z,97500.84
2023-05-10T21:24:20.423Z,97494.97
2023-05-10T21:26:47.311Z,97504.28
2023-05-10T21:29:16.224Z,97508.53
2023-05-10T21:31:44.353Z,97505.94
2023-05-10T21:34:14.525Z,97508.06
2023-05-10T21:37:13.573Z,97496.03
2023-05-10T21:39:45.904Z,97508.47
2023-05-10T21:45:35.999Z,97495.19
2023-05-10T21:48:11.748Z,97502.34
2023-05-10T21:50:40.098Z,97503.28
2023-05-10T21:53:09.621Z,97499.22
2023-05-10T21:55:38.430Z,97487.28
2023-05-10T21:58:07.154Z,97490.78
2023-05-10T22:00:42.943Z,97487.63
2023-05-10T22:03:16.568Z,97440.91
2023-05-10T22:05:47.508Z,97478.84
2023-05-10T22:08:19.321Z,97481.38
2023-05-10T22:10:46.721Z,97476.19
2023-05-10T22:13:13.678Z,97476.97
2023-05-10T22:15:40.630Z,97464.84
2023-05-10T22:18:07.874Z,97468.13
2023-05-10T22:20:34.893Z,97455.44
2023-05-10T22:23:02.193Z,97469.69
2023-05-10T22:25:29.137Z,97474.31
2023-05-10T22:27:56.040Z,97464.38
2023-05-10T22:30:23.098Z,97465.28
2023-05-10T22:32:50.039Z,97465.63
2023-05-10T22:35:17.140Z,97462.59
2023-05-10T22:37:45.010Z,97463.03
2023-05-10T22:40:13.292Z,97463.03
2023-05-10T22:42:40.259Z,97463.72
2023-05-10T22:47:54.451Z,97448.44
2023-05-10T22:50:22.320Z,97448.78
2023-05-10T22:52:52.679Z,97453.09
2023-05-10T22:55:19.641Z,97457.06
2023-05-10T22:57:47.209Z,97459.22
2023-05-10T23:00:14.667Z,97460.13
2023-05-10T23:02:41.836Z,97453.13
2023-05-10T23:05:09.567Z,97437.28
2023-05-10T23:07:36.506Z,97434.69
2023-05-10T23:10:03.491Z,97448.84
2023-05-10T23:12:32.309Z,97448.00
2023-05-10T23:15:00.138Z,97428.19
2023-05-10T23:17:27.258Z,97442.34
2023-05-10T23:19:54.330Z,97445.63
2023-05-10T23:22:21.259Z,97445.66
2023-05-10T23:24:48.190Z,97437.69
2023-05-10T23:27:15.126Z,97445.19
2023-05-10T23:29:42.252Z,97449.41
2023-05-10T23:32:09.225Z,97450.91
2023-05-10T23:34:36.255Z,97444.06
2023-05-10T23:37:03.231Z,97447.47
2023-05-10T23:39:30.107Z,97441.91
2023-05-10T23:41:57.102Z,97452.59
2023-05-10T23:44:24.430Z,97437.28
2023-05-10T23:46:51.670Z,97444.63
2023-05-10T23:49:18.624Z,97433.13
2023-05-10T23:51:45.646Z,97442.28
2023-05-10T23:54:12.726Z,97440.31
2023-05-10T23:56:39.743Z,97440.72
2023-05-10T23:59:06.753Z,97439.28
